Time;durP1;ratioP1;P1;durP2;ratioP2;P2;SDS_P1;SDS_P2;PMS_P1;PMS_P2;Temp;Humidity;BMP_temperature;BMP_pressure;BME280_temperature;BME280_humidity;BME280_pressure;Samples;Min_cycle;Max_cycle;Signal;HPM_P1;HPM_P2
2021/09/26 00:02:06;;;;;;;9.15;6.53;;;;;;;;;;4952817;29;20447;-66
2021/09/26 00:04:33;;;;;;;7.32;6.60;;;;;;;;;;4953128;28;20142;-66
2021/09/26 00:07:00;;;;;;;7.78;6.95;;;;;;;;;;4953277;29;20089;-66
2021/09/26 00:09:28;;;;;;;7.95;6.53;;;;;;;;;;4953464;29;20454;-66
2021/09/26 00:11:56;;;;;;;8.02;6.43;;;;;;;;;;4969397;28;20055;-65
2021/09/26 00:14:23;;;;;;;7.20;6.22;;;;;;;;;;4972235;28;20054;-66
2021/09/26 00:16:49;;;;;;;8.43;6.85;;;;;;;;;;4972592;28;20050;-66
2021/09/26 00:19:16;;;;;;;9.85;6.90;;;;;;;;;;4966927;28;20102;-66
2021/09/26 00:21:43;;;;;;;8.65;6.57;;;;;;;;;;4956268;29;20047;-66
2021/09/26 00:24:09;;;;;;;7.28;6.03;;;;;;;;;;4956610;28;20047;-66
2021/09/26 00:26:36;;;;;;;6.50;5.65;;;;;;;;;;4956597;29;20122;-66
2021/09/26 00:29:03;;;;;;;9.77;7.10;;;;;;;;;;4956252;29;20470;-66
2021/09/26 00:31:29;;;;;;;7.72;6.18;;;;;;;;;;4956051;29;20090;-66
2021/09/26 00:33:56;;;;;;;8.73;6.40;;;;;;;;;;4956289;28;20051;-66
2021/09/26 00:36:22;;;;;;;8.55;6.55;;;;;;;;;;4956307;29;20047;-66
2021/09/26 00:38:49;;;;;;;8.95;7.18;;;;;;;;;;4969401;28;20050;-66
2021/09/26 00:41:16;;;;;;;8.13;6.20;;;;;;;;;;4975285;28;20059;-66
2021/09/26 00:43:42;;;;;;;8.93;6.90;;;;;;;;;;4975483;28;20101;-66
2021/09/26 00:46:09;;;;;;;7.18;6.10;;;;;;;;;;4975240;28;20462;-66
2021/09/26 00:48:36;;;;;;;12.32;7.07;;;;;;;;;;4975342;28;20421;-66
2021/09/26 00:51:09;;;;;;;7.28;6.53;;;;;;;;;;4961816;28;20055;-66
2021/09/26 00:53:45;;;;;;;8.75;7.00;;;;;;;;;;4955771;28;20054;-66
2021/09/26 00:56:12;;;;;;;8.35;6.78;;;;;;;;;;4956122;29;20059;-66
2021/09/26 00:58:39;;;;;;;10.98;7.18;;;;;;;;;;4955909;29;20325;-66
2021/09/26 01:01:06;;;;;;;7.25;5.90;;;;;;;;;;4938715;29;20199;-65
2021/09/26 01:03:33;;;;;;;8.77;6.55;;;;;;;;;;4955811;28;20051;-65
2021/09/26 01:06:14;;;;;;;7.10;6.05;;;;;;;;;;4955519;28;20055;-65
2021/09/26 01:09:19;;;;;;;9.70;6.85;;;;;;;;;;4955718;29;20418;-65
2021/09/26 01:12:04;;;;;;;9.98;6.97;;;;;;;;;;4955399;29;20043;-65
2021/09/26 01:14:44;;;;;;;9.82;7.32;;;;;;;;;;4955569;28;20055;-65
2021/09/26 01:17:27;;;;;;;8.57;6.93;;;;;;;;;;4939059;29;20391;-65
2021/09/26 01:20:12;;;;;;;;;;;;;;;;;;4939037;29;20098;-65
2021/09/26 01:22:58;;;;;;;8.40;6.60;;;;;;;;;;4955150;28;20333;-65
2021/09/26 01:25:49;;;;;;;10.60;7.43;;;;;;;;;;4955398;29;20470;-65
2021/09/26 01:28:26;;;;;;;10.43;7.05;;;;;;;;;;4955189;28;20467;-65
2021/09/26 01:30:54;;;;;;;8.88;6.57;;;;;;;;;;4955121;29;20047;-65
2021/09/26 01:33:34;;;;;;;8.73;6.97;;;;;;;;;;4939410;28;20382;-65
2021/09/26 01:36:07;;;;;;;9.13;7.13;;;;;;;;;;4957454;28;20054;-65
2021/09/26 01:38:59;;;;;;;9.15;7.18;;;;;;;;;;4958419;28;20077;-65
2021/09/26 01:41:55;;;;;;;9.57;6.43;;;;;;;;;;4959143;28;20051;-65
2021/09/26 01:44:46;;;;;;;7.70;6.35;;;;;;;;;;4987673;28;20059;-65
2021/09/26 01:47:16;;;;;;;9.10;6.60;;;;;;;;;;4964151;28;20051;-65
2021/09/26 01:49:49;;;;;;;8.52;6.60;;;;;;;;;;4944082;29;20051;-65
2021/09/26 01:52:19;;;;;;;11.60;6.78;;;;;;;;;;4953557;29;20047;-65
2021/09/26 01:54:47;;;;;;;9.25;7.30;;;;;;;;;;4922127;29;20557;-65
2021/09/26 01:57:20;;;;;;;7.30;6.60;;;;;;;;;;4967244;28;20073;-65
2021/09/26 01:59:51;;;;;;;10.60;6.32;;;;;;;;;;4973974;28;20062;-65
2021/09/26 02:02:19;;;;;;;7.55;6.47;;;;;;;;;;4973828;28;20106;-65
2021/09/26 02:04:52;;;;;;;7.32;6.45;;;;;;;;;;4963801;28;20133;-66
2021/09/26 02:07:19;;;;;;;9.25;7.07;;;;;;;;;;4968903;28;20051;-66
2021/09/26 02:09:46;;;;;;;8.07;6.05;;;;;;;;;;4952438;28;20054;-66
2021/09/26 02:12:13;;;;;;;9.32;7.28;;;;;;;;;;4984520;28;20043;-66
2021/09/26 02:14:41;;;;;;;9.55;7.03;;;;;;;;;;4967132;28;20078;-66
2021/09/26 02:17:07;;;;;;;9.85;7.60;;;;;;;;;;4967196;28;20046;-66
2021/09/26 02:19:35;;;;;;;7.93;6.63;;;;;;;;;;4967170;28;20087;-66
2021/09/26 02:22:04;;;;;;;8.50;7.57;;;;;;;;;;4966997;28;20043;-66
2021/09/26 02:24:33;;;;;;;10.38;7.90;;;;;;;;;;4950021;28;20050;-66
2021/09/26 02:26:59;;;;;;;7.90;6.88;;;;;;;;;;4966538;28;20051;-66
2021/09/26 02:29:26;;;;;;;8.18;7.38;;;;;;;;;;4982541;28;20112;-66
2021/09/26 02:31:53;;;;;;;10.88;7.57;;;;;;;;;;4978612;28;20047;-65
2021/09/26 02:34:20;;;;;;;8.52;7.50;;;;;;;;;;4976488;28;20498;-65
2021/09/26 02:36:46;;;;;;;8.43;7.30;;;;;;;;;;4973510;28;20051;-65
2021/09/26 02:39:14;;;;;;;9.68;7.38;;;;;;;;;;4973310;28;20105;-66
2021/09/26 02:41:54;;;;;;;9.93;6.97;;;;;;;;;;4955525;28;20101;-66
2021/09/26 02:44:30;;;;;;;10.13;7.75;;;;;;;;;;4972295;28;20109;-66
2021/09/26 02:47:03;;;;;;;10.70;7.72;;;;;;;;;;4940390;28;20054;-66
2021/09/26 02:49:29;;;;;;;10.43;7.60;;;;;;;;;;4941131;28;20101;-65
2021/09/26 02:51:56;;;;;;;10.00;7.07;;;;;;;;;;4983887;28;20031;-65
2021/09/26 02:54:24;;;;;;;10.65;7.25;;;;;;;;;;4975740;28;20078;-65
2021/09/26 02:56:51;;;;;;;9.75;7.10;;;;;;;;;;4973414;28;20070;-66
2021/09/26 02:59:20;;;;;;;11.15;8.05;;;;;;;;;;4967511;28;20063;-66
2021/09/26 03:01:48;;;;;;;8.77;7.45;;;;;;;;;;4944270;28;20050;-66
2021/09/26 03:04:15;;;;;;;8.40;7.40;;;;;;;;;;4958469;28;20050;-66
2021/09/26 03:06:42;;;;;;;11.70;8.00;;;;;;;;;;4973677;28;20050;-66
2021/09/26 03:09:09;;;;;;;8.55;6.72;;;;;;;;;;4986604;28;20062;-66
2021/09/26 03:11:35;;;;;;;8.55;7.28;;;;;;;;;;4986067;28;20058;-65
2021/09/26 03:14:02;;;;;;;10.00;7.15;;;;;;;;;;5011435;23;20089;-67
2021/09/26 03:16:29;;;;;;;11.98;8.60;;;;;;;;;;4991384;28;20046;-67
2021/09/26 03:18:56;;;;;;;9.45;6.97;;;;;;;;;;4992130;28;20082;-67
2021/09/26 03:21:23;;;;;;;8.73;6.38;;;;;;;;;;4991876;28;20564;-67
2021/09/26 03:23:50;;;;;;;9.15;7.20;;;;;;;;;;4992251;28;20058;-67
2021/09/26 03:26:16;;;;;;;8.77;7.60;;;;;;;;;;4992160;28;20464;-67
2021/09/26 03:28:43;;;;;;;10.40;7.53;;;;;;;;;;4992206;28;20133;-67
2021/09/26 03:31:09;;;;;;;8.73;7.60;;;;;;;;;;4991943;28;20074;-67
2021/09/26 03:33:36;;;;;;;12.63;8.10;;;;;;;;;;4990897;28;20571;-67
2021/09/26 03:36:03;;;;;;;8.10;7.28;;;;;;;;;;4972623;28;20061;-66
2021/09/26 03:38:30;;;;;;;10.70;7.95;;;;;;;;;;4972638;28;20534;-67
2021/09/26 03:40:57;;;;;;;9.75;7.53;;;;;;;;;;4972647;28;20046;-67
2021/09/26 03:43:23;;;;;;;10.25;7.10;;;;;;;;;;4972219;28;20055;-67
2021/09/26 03:45:50;;;;;;;10.27;7.35;;;;;;;;;;4972481;28;20047;-67
2021/09/26 03:48:23;;;;;;;12.45;7.95;;;;;;;;;;4972536;28;20082;-68
2021/09/26 03:50:50;;;;;;;;;;;;;;;;;;4972988;28;20470;-68
2021/09/26 03:53:17;;;;;;;13.23;7.22;;;;;;;;;;4974123;28;20376;-68
2021/09/26 03:55:44;;;;;;;12.02;7.47;;;;;;;;;;4976317;28;20055;-68
2021/09/26 03:58:11;;;;;;;8.77;6.82;;;;;;;;;;4976334;28;20054;-68
2021/09/26 04:00:37;;;;;;;9.88;7.63;;;;;;;;;;4976121;28;20469;-68
2021/09/26 04:03:04;;;;;;;10.15;7.85;;;;;;;;;;4975985;28;20129;-69
2021/09/26 04:05:31;;;;;;;8.75;7.18;;;;;;;;;;4976026;28;20054;-68
2021/09/26 04:07:58;;;;;;;9.10;7.65;;;;;;;;;;4976235;28;20051;-68
2021/09/26 04:10:24;;;;;;;10.07;7.95;;;;;;;;;;4975930;28;20054;-68
2021/09/26 04:12:51;;;;;;;9.57;8.20;;;;;;;;;;4975356;28;20043;-67
2021/09/26 04:15:19;;;;;;;10.10;8.15;;;;;;;;;;4975890;28;20059;-67
2021/09/26 04:17:45;;;;;;;9.30;8.30;;;;;;;;;;4975936;28;20124;-67
2021/09/26 04:20:12;;;;;;;11.90;8.02;;;;;;;;;;4988516;28;20058;-67
2021/09/26 04:22:39;;;;;;;10.77;7.93;;;;;;;;;;4995023;28;20120;-68
2021/09/26 04:25:06;;;;;;;9.85;7.80;;;;;;;;;;4977570;28;20062;-68
2021/09/26 04:27:33;;;;;;;13.50;8.50;;;;;;;;;;4995204;28;20464;-68
2021/09/26 04:29:59;;;;;;;8.15;7.07;;;;;;;;;;4995114;28;20112;-67
2021/09/26 04:32:26;;;;;;;9.80;7.35;;;;;;;;;;4994575;28;20054;-67
2021/09/26 04:34:52;;;;;;;11.07;7.53;;;;;;;;;;4994939;28;20468;-67
2021/09/26 04:37:19;;;;;;;8.55;6.63;;;;;;;;;;4994974;28;20050;-67
2021/09/26 04:39:46;;;;;;;10.02;6.78;;;;;;;;;;4995015;28;20464;-66
2021/09/26 04:42:13;;;;;;;8.02;6.75;;;;;;;;;;4994070;28;20189;-67
2021/09/26 04:44:39;;;;;;;11.52;6.97;;;;;;;;;;4994662;28;20050;-68
2021/09/26 04:47:06;;;;;;;9.68;6.97;;;;;;;;;;4994683;28;20112;-68
2021/09/26 04:49:33;;;;;;;10.43;6.93;;;;;;;;;;4994924;28;20050;-68
2021/09/26 04:52:00;;;;;;;8.60;6.88;;;;;;;;;;4994442;28;20097;-67
2021/09/26 04:54:27;;;;;;;10.20;6.95;;;;;;;;;;4994620;28;20422;-67
2021/09/26 04:56:54;;;;;;;8.95;7.45;;;;;;;;;;4994598;28;20046;-68
2021/09/26 04:59:21;;;;;;;8.63;7.25;;;;;;;;;;4994619;28;20069;-66
2021/09/26 05:01:48;;;;;;;10.68;7.38;;;;;;;;;;4993904;28;20050;-67
2021/09/26 05:04:15;;;;;;;11.02;7.25;;;;;;;;;;4994124;28;20054;-68
2021/09/26 05:06:42;;;;;;;9.73;8.05;;;;;;;;;;4994562;28;20512;-68
2021/09/26 05:09:09;;;;;;;8.88;6.88;;;;;;;;;;4994392;28;20054;-67
2021/09/26 05:11:35;;;;;;;8.32;7.43;;;;;;;;;;4994209;28;20042;-67
2021/09/26 05:14:02;;;;;;;8.68;7.50;;;;;;;;;;4994043;28;20477;-68
2021/09/26 05:16:29;;;;;;;9.18;7.25;;;;;;;;;;4994385;28;20046;-66
2021/09/26 05:18:55;;;;;;;8.80;7.28;;;;;;;;;;4994181;28;20101;-68
2021/09/26 05:21:22;;;;;;;7.97;7.05;;;;;;;;;;4994146;28;20094;-68
2021/09/26 05:23:49;;;;;;;9.82;7.75;;;;;;;;;;4993982;28;20054;-67
2021/09/26 05:26:16;;;;;;;8.95;7.15;;;;;;;;;;4994225;28;20215;-67
2021/09/26 05:28:43;;;;;;;9.38;7.90;;;;;;;;;;4993849;28;20057;-68
2021/09/26 05:31:10;;;;;;;9.75;7.78;;;;;;;;;;4993969;28;20465;-67
2021/09/26 05:33:37;;;;;;;8.13;7.32;;;;;;;;;;4993572;28;20054;-67
2021/09/26 05:36:04;;;;;;;10.30;7.70;;;;;;;;;;4993920;28;20559;-67
2021/09/26 05:38:30;;;;;;;9.25;7.78;;;;;;;;;;4993757;28;20054;-66
2021/09/26 05:40:57;;;;;;;11.80;8.32;;;;;;;;;;4993902;28;20054;-67
2021/09/26 05:43:24;;;;;;;9.32;7.63;;;;;;;;;;4993607;28;20054;-68
2021/09/26 05:45:50;;;;;;;9.93;8.60;;;;;;;;;;4979884;28;20054;-68
2021/09/26 05:48:17;;;;;;;11.55;7.70;;;;;;;;;;4974188;28;20068;-68
2021/09/26 05:50:44;;;;;;;10.48;7.68;;;;;;;;;;4974244;28;20458;-67
2021/09/26 05:53:10;;;;;;;10.60;7.53;;;;;;;;;;4973922;28;20508;-68
2021/09/26 05:55:37;;;;;;;10.45;7.40;;;;;;;;;;4975214;28;20450;-67
2021/09/26 05:58:04;;;;;;;9.88;8.05;;;;;;;;;;4973927;28;20063;-68
2021/09/26 06:00:31;;;;;;;11.48;7.93;;;;;;;;;;4983197;28;20582;-68
2021/09/26 06:02:57;;;;;;;10.85;8.25;;;;;;;;;;4993083;28;20056;-67
2021/09/26 06:05:24;;;;;;;10.77;7.90;;;;;;;;;;4993249;28;20082;-68
2021/09/26 06:07:51;;;;;;;11.93;8.05;;;;;;;;;;4993284;28;20141;-68
2021/09/26 06:10:18;;;;;;;9.27;7.93;;;;;;;;;;4992957;28;20140;-67
2021/09/26 06:12:44;;;;;;;8.18;7.38;;;;;;;;;;4993105;28;20092;-68
2021/09/26 06:15:11;;;;;;;9.13;7.82;;;;;;;;;;4992222;28;20096;-67
2021/09/26 06:17:38;;;;;;;10.15;8.57;;;;;;;;;;4993354;28;20054;-67
2021/09/26 06:20:06;;;;;;;9.38;7.53;;;;;;;;;;4993173;28;20054;-67
2021/09/26 06:22:32;;;;;;;9.38;8.35;;;;;;;;;;4992840;28;20046;-67
2021/09/26 06:24:59;;;;;;;11.75;8.07;;;;;;;;;;4992971;28;20054;-68
2021/09/26 06:27:26;;;;;;;8.60;7.32;;;;;;;;;;4992983;28;20108;-68
2021/09/26 06:29:52;;;;;;;9.45;8.20;;;;;;;;;;4992996;28;20055;-67
2021/09/26 06:32:19;;;;;;;11.23;7.95;;;;;;;;;;4992546;28;20053;-68
2021/09/26 06:34:46;;;;;;;8.00;7.20;;;;;;;;;;4992696;28;20137;-68
2021/09/26 06:37:12;;;;;;;8.57;7.43;;;;;;;;;;4992586;28;20054;-68
2021/09/26 06:39:39;;;;;;;8.63;7.13;;;;;;;;;;4992554;28;20425;-68
2021/09/26 06:42:06;;;;;;;10.05;7.55;;;;;;;;;;4991775;28;20461;-68
2021/09/26 06:44:32;;;;;;;10.13;7.85;;;;;;;;;;4992247;28;20120;-67
2021/09/26 06:46:59;;;;;;;11.00;7.30;;;;;;;;;;4992266;28;20105;-69
2021/09/26 06:49:25;;;;;;;8.80;7.20;;;;;;;;;;4992803;28;20058;-68
2021/09/26 06:51:52;;;;;;;7.97;6.78;;;;;;;;;;4992194;28;20501;-68
2021/09/26 06:54:19;;;;;;;11.25;7.05;;;;;;;;;;4992630;28;20050;-71
2021/09/26 06:56:45;;;;;;;11.23;8.23;;;;;;;;;;4992022;28;20054;-66
2021/09/26 06:59:12;;;;;;;8.82;7.47;;;;;;;;;;4992540;28;20496;-66
2021/09/26 07:01:39;;;;;;;9.43;8.07;;;;;;;;;;4992222;28;20398;-66
2021/09/26 07:04:05;;;;;;;8.98;7.95;;;;;;;;;;4992287;28;20054;-66
2021/09/26 07:06:32;;;;;;;9.35;7.28;;;;;;;;;;4992418;28;20046;-67
2021/09/26 07:08:59;;;;;;;10.07;7.30;;;;;;;;;;4992451;28;20473;-67
2021/09/26 07:11:26;;;;;;;9.20;7.65;;;;;;;;;;4974742;28;20050;-66
2021/09/26 07:13:52;;;;;;;9.80;8.00;;;;;;;;;;4991559;28;20051;-67
2021/09/26 07:16:19;;;;;;;10.20;7.47;;;;;;;;;;4992486;28;20050;-67
2021/09/26 07:18:46;;;;;;;10.05;6.75;;;;;;;;;;4992209;28;20090;-67
2021/09/26 07:21:15;;;;;;;10.98;6.95;;;;;;;;;;4992023;28;20468;-66
2021/09/26 07:23:43;;;;;;;11.40;7.53;;;;;;;;;;4991915;28;20050;-66
2021/09/26 07:26:10;;;;;;;10.27;5.97;;;;;;;;;;4992421;28;20058;-66
2021/09/26 07:28:36;;;;;;;8.45;7.32;;;;;;;;;;4996332;28;20101;-66
2021/09/26 07:31:03;;;;;;;13.88;7.70;;;;;;;;;;4996164;28;20081;-67
2021/09/26 07:33:29;;;;;;;11.10;7.22;;;;;;;;;;4995740;28;20046;-67
2021/09/26 07:35:56;;;;;;;9.93;6.65;;;;;;;;;;4996011;28;20509;-67
2021/09/26 07:38:23;;;;;;;7.93;6.55;;;;;;;;;;4996209;28;20058;-66
2021/09/26 07:40:49;;;;;;;8.60;6.47;;;;;;;;;;4995703;28;20058;-67
2021/09/26 07:43:16;;;;;;;8.55;6.43;;;;;;;;;;4978458;28;20054;-66
2021/09/26 07:45:54;;;;;;;8.88;6.65;;;;;;;;;;4995899;28;20100;-66
2021/09/26 07:48:21;;;;;;;11.13;7.40;;;;;;;;;;4995868;28;20057;-65
2021/09/26 07:50:49;;;;;;;8.23;6.70;;;;;;;;;;4995836;28;20054;-66
2021/09/26 07:53:16;;;;;;;9.07;7.03;;;;;;;;;;4995598;28;20050;-65
2021/09/26 07:55:43;;;;;;;9.52;7.22;;;;;;;;;;4995595;28;20054;-65
2021/09/26 07:58:09;;;;;;;9.93;6.57;;;;;;;;;;4995638;28;20109;-66
2021/09/26 08:00:36;;;;;;;8.45;6.57;;;;;;;;;;4995902;28;20179;-66
2021/09/26 08:03:08;;;;;;;9.18;6.60;;;;;;;;;;4995431;28;20081;-66
2021/09/26 08:05:35;;;;;;;8.02;6.38;;;;;;;;;;4995583;28;20100;-65
2021/09/26 08:08:01;;;;;;;8.32;6.55;;;;;;;;;;4995364;28;20053;-66
2021/09/26 08:10:28;;;;;;;10.55;6.30;;;;;;;;;;4995494;28;20046;-66
2021/09/26 08:12:55;;;;;;;8.50;6.53;;;;;;;;;;4994859;28;20046;-66
2021/09/26 08:15:21;;;;;;;8.68;6.13;;;;;;;;;;4995555;28;20493;-67
2021/09/26 08:17:48;;;;;;;8.68;5.65;;;;;;;;;;4995401;28;20186;-67
2021/09/26 08:20:16;;;;;;;6.47;5.72;;;;;;;;;;4995368;28;20050;-67
2021/09/26 08:22:44;;;;;;;8.20;6.35;;;;;;;;;;4995043;28;20054;-65
2021/09/26 08:25:14;;;;;;;7.25;5.97;;;;;;;;;;4995276;28;20050;-67
2021/09/26 08:27:41;;;;;;;7.18;6.00;;;;;;;;;;4995569;28;20058;-67
2021/09/26 08:30:09;;;;;;;10.50;6.72;;;;;;;;;;4995953;28;20058;-67
2021/09/26 08:32:36;;;;;;;9.52;5.82;;;;;;;;;;4995620;28;20055;-68
2021/09/26 08:35:04;;;;;;;12.60;5.85;;;;;;;;;;4995378;28;20054;-70
2021/09/26 08:37:31;;;;;;;7.90;4.97;;;;;;;;;;4976329;28;20054;-72
2021/09/26 08:39:58;;;;;;;8.23;5.75;;;;;;;;;;4992459;28;20054;-69
2021/09/26 08:42:25;;;;;;;10.45;5.65;;;;;;;;;;4992943;28;20050;-68
2021/09/26 08:44:51;;;;;;;11.10;5.97;;;;;;;;;;4994223;28;20069;-68
2021/09/26 08:47:18;;;;;;;10.50;5.63;;;;;;;;;;4994607;28;20050;-68
2021/09/26 08:49:45;;;;;;;6.50;5.25;;;;;;;;;;4994603;28;20050;-68
2021/09/26 08:52:12;;;;;;;9.10;5.65;;;;;;;;;;4994150;28;20191;-68
2021/09/26 08:54:39;;;;;;;6.68;5.10;;;;;;;;;;4994401;28;20054;-70
2021/09/26 08:57:06;;;;;;;9.25;5.55;;;;;;;;;;4993821;28;20120;-68
2021/09/26 08:59:33;;;;;;;6.78;5.32;;;;;;;;;;4994047;28;20046;-72
2021/09/26 09:02:02;;;;;;;10.70;5.68;;;;;;;;;;4993456;28;20053;-69
2021/09/26 09:04:40;;;;;;;8.13;5.32;;;;;;;;;;4974781;28;20134;-70
2021/09/26 09:07:09;;;;;;;8.50;4.82;;;;;;;;;;4994093;28;20102;-69
2021/09/26 09:10:02;;;;;;;8.18;5.93;;;;;;;;;;4994207;28;20105;-70
2021/09/26 09:12:32;;;;;;;;;;;;;;;;;;4991295;28;20501;-69
2021/09/26 09:15:01;;;;;;;9.43;5.18;;;;;;;;;;5017758;23;19925;-66
2021/09/26 09:17:30;;;;;;;10.45;5.35;;;;;;;;;;4994428;28;20050;-66
2021/09/26 09:20:20;;;;;;;8.52;4.55;;;;;;;;;;4994191;28;20098;-67
2021/09/26 09:22:51;;;;;;;7.80;5.00;;;;;;;;;;4993881;28;20050;-66
2021/09/26 09:25:31;;;;;;;8.75;4.60;;;;;;;;;;4994144;28;20117;-67
2021/09/26 09:27:58;;;;;;;8.07;5.05;;;;;;;;;;4994031;28;20108;-66
2021/09/26 09:30:33;;;;;;;7.00;5.10;;;;;;;;;;4976984;28;20057;-66
2021/09/26 09:33:00;;;;;;;8.18;4.90;;;;;;;;;;4993670;28;20046;-67
2021/09/26 09:35:29;;;;;;;8.20;5.05;;;;;;;;;;4993871;28;20050;-66
2021/09/26 09:37:56;;;;;;;8.60;5.32;;;;;;;;;;4993853;28;20100;-66
2021/09/26 09:40:23;;;;;;;9.32;6.25;;;;;;;;;;4993970;28;20505;-68
2021/09/26 09:42:51;;;;;;;7.80;5.13;;;;;;;;;;4993599;28;20503;-67
2021/09/26 09:45:36;;;;;;;7.95;4.97;;;;;;;;;;4993812;28;20104;-66
2021/09/26 09:48:08;;;;;;;8.73;4.65;;;;;;;;;;4993654;28;20112;-66
2021/09/26 09:50:49;;;;;;;7.60;5.20;;;;;;;;;;4993650;28;20476;-66
2021/09/26 09:53:28;;;;;;;5.43;4.68;;;;;;;;;;4993344;28;20795;-66
2021/09/26 09:55:56;;;;;;;9.23;4.85;;;;;;;;;;4993849;28;20054;-67
2021/09/26 09:58:23;;;;;;;6.13;5.28;;;;;;;;;;4994201;28;20090;-66
2021/09/26 10:00:55;;;;;;;8.52;5.60;;;;;;;;;;4993515;28;20509;-68
2021/09/26 10:03:39;;;;;;;9.48;5.82;;;;;;;;;;4993168;28;20046;-67
2021/09/26 10:06:44;;;;;;;8.13;6.63;;;;;;;;;;4993397;28;20058;-66
2021/09/26 10:09:15;;;;;;;7.15;6.03;;;;;;;;;;4993403;28;20525;-67
2021/09/26 10:12:07;;;;;;;8.68;7.13;;;;;;;;;;4993178;28;20117;-67
2021/09/26 10:14:35;;;;;;;11.38;6.13;;;;;;;;;;4993182;28;20097;-68
2021/09/26 10:17:03;;;;;;;8.93;6.55;;;;;;;;;;4992981;28;20568;-66
2021/09/26 10:19:32;;;;;;;8.60;6.93;;;;;;;;;;4993294;28;20093;-68
2021/09/26 10:22:00;;;;;;;9.02;6.65;;;;;;;;;;4992730;28;20057;-66
2021/09/26 10:24:30;;;;;;;7.68;6.97;;;;;;;;;;4976008;28;20105;-66
2021/09/26 10:27:03;;;;;;;9.20;7.75;;;;;;;;;;4992969;28;20501;-67
2021/09/26 10:29:32;;;;;;;8.30;7.43;;;;;;;;;;4993438;28;20051;-66
2021/09/26 10:32:00;;;;;;;8.27;7.47;;;;;;;;;;4975688;28;20104;-67
2021/09/26 10:34:27;;;;;;;8.57;7.68;;;;;;;;;;4992988;28;20046;-66
2021/09/26 10:36:53;;;;;;;10.65;7.72;;;;;;;;;;4975589;28;20050;-66
2021/09/26 10:39:20;;;;;;;8.60;7.70;;;;;;;;;;4975831;28;20062;-66
2021/09/26 10:42:06;;;;;;;8.25;7.25;;;;;;;;;;4959432;28;20050;-67
2021/09/26 10:44:36;;;;;;;9.00;7.82;;;;;;;;;;4992737;28;20050;-66
2021/09/26 10:47:17;;;;;;;9.18;7.75;;;;;;;;;;4975800;28;20104;-67
2021/09/26 10:50:02;;;;;;;10.75;7.60;;;;;;;;;;4992779;28;20053;-67
2021/09/26 10:52:37;;;;;;;8.95;6.63;;;;;;;;;;4992471;28;20406;-67
2021/09/26 10:55:21;;;;;;;8.75;7.65;;;;;;;;;;4975385;28;20050;-66
2021/09/26 10:57:53;;;;;;;8.98;7.07;;;;;;;;;;4992404;28;20050;-66
2021/09/26 11:00:29;;;;;;;7.60;6.80;;;;;;;;;;4975239;28;20101;-67
2021/09/26 11:03:08;;;;;;;7.68;6.78;;;;;;;;;;4991998;28;20121;-66
2021/09/26 11:05:39;;;;;;;8.05;7.00;;;;;;;;;;4992583;28;20500;-68
2021/09/26 11:08:10;;;;;;;8.27;7.47;;;;;;;;;;4992414;28;20859;-66
2021/09/26 11:10:48;;;;;;;7.97;7.20;;;;;;;;;;4975245;28;20112;-66
2021/09/26 11:13:18;;;;;;;7.35;6.65;;;;;;;;;;4991936;28;20042;-66
2021/09/26 11:16:09;;;;;;;8.70;7.45;;;;;;;;;;4992309;28;20046;-66
2021/09/26 11:18:56;;;;;;;8.60;6.88;;;;;;;;;;4992442;28;20198;-66
2021/09/26 11:21:38;;;;;;;8.30;6.85;;;;;;;;;;4992111;28;20113;-66
2021/09/26 11:24:31;;;;;;;7.28;6.57;;;;;;;;;;4992025;28;20413;-66
2021/09/26 11:27:00;;;;;;;8.07;7.28;;;;;;;;;;4992405;28;20050;-66
2021/09/26 11:29:43;;;;;;;9.15;7.63;;;;;;;;;;4974994;28;20050;-66
2021/09/26 11:32:21;;;;;;;8.75;7.85;;;;;;;;;;4991852;28;20061;-66
2021/09/26 11:34:51;;;;;;;10.38;7.60;;;;;;;;;;4991880;28;20070;-67
2021/09/26 11:37:34;;;;;;;9.27;7.65;;;;;;;;;;4992288;28;20057;-67
2021/09/26 11:40:03;;;;;;;8.20;7.38;;;;;;;;;;4957670;28;20051;-66
2021/09/26 11:42:31;;;;;;;10.82;7.55;;;;;;;;;;4991635;28;20505;-68
2021/09/26 11:44:58;;;;;;;10.55;8.20;;;;;;;;;;4992256;28;20061;-66
2021/09/26 11:47:26;;;;;;;10.05;8.95;;;;;;;;;;4992086;28;20050;-66
2021/09/26 11:49:53;;;;;;;10.77;8.70;;;;;;;;;;4991873;28;20469;-66
2021/09/26 11:52:20;;;;;;;11.85;8.52;;;;;;;;;;4991821;28;20057;-66
2021/09/26 11:54:47;;;;;;;9.48;8.50;;;;;;;;;;4991722;28;20050;-67
2021/09/26 11:57:14;;;;;;;10.07;8.95;;;;;;;;;;4992170;28;20109;-66
2021/09/26 11:59:42;;;;;;;10.20;8.68;;;;;;;;;;4958637;28;20199;-66
2021/09/26 12:02:13;;;;;;;10.73;7.82;;;;;;;;;;4991653;28;20055;-67
2021/09/26 12:04:40;;;;;;;11.20;9.15;;;;;;;;;;4991635;28;20046;-66
2021/09/26 12:07:07;;;;;;;10.13;9.05;;;;;;;;;;4991767;28;20104;-67
2021/09/26 12:09:42;;;;;;;9.73;8.65;;;;;;;;;;4992194;28;20052;-66
2021/09/26 12:12:15;;;;;;;9.07;8.13;;;;;;;;;;4991677;28;20089;-66
2021/09/26 12:14:45;;;;;;;8.82;7.93;;;;;;;;;;4993957;28;20576;-66
2021/09/26 12:17:13;;;;;;;10.35;9.00;;;;;;;;;;4995401;28;20050;-66
2021/09/26 12:19:40;;;;;;;9.18;8.18;;;;;;;;;;4978136;28;20101;-66
2021/09/26 12:22:13;;;;;;;10.95;9.20;;;;;;;;;;4995186;28;20109;-68
2021/09/26 12:24:53;;;;;;;10.50;8.35;;;;;;;;;;4995171;28;20042;-66
2021/09/26 12:27:23;;;;;;;10.55;8.98;;;;;;;;;;4995079;28;20061;-66
2021/09/26 12:29:53;;;;;;;10.02;8.25;;;;;;;;;;4994692;28;20046;-68
2021/09/26 12:32:23;;;;;;;8.90;7.88;;;;;;;;;;4994981;28;20469;-67
2021/09/26 12:34:50;;;;;;;11.45;8.13;;;;;;;;;;4994983;28;20050;-69
2021/09/26 12:37:23;;;;;;;9.82;8.00;;;;;;;;;;4993920;28;20054;-69
2021/09/26 12:39:51;;;;;;;9.15;8.02;;;;;;;;;;4992711;28;20061;-67
2021/09/26 12:42:24;;;;;;;8.20;7.40;;;;;;;;;;4974934;28;20113;-67
2021/09/26 12:44:51;;;;;;;7.70;6.68;;;;;;;;;;4992640;28;20480;-67
2021/09/26 12:47:21;;;;;;;6.82;6.13;;;;;;;;;;4992733;28;20058;-67
2021/09/26 12:49:48;;;;;;;6.95;5.90;;;;;;;;;;4959795;28;20104;-67
2021/09/26 12:52:28;;;;;;;7.13;6.18;;;;;;;;;;4958962;28;20050;-66
2021/09/26 12:54:58;;;;;;;7.20;6.32;;;;;;;;;;4959038;28;20054;-68
2021/09/26 12:57:26;;;;;;;6.40;5.70;;;;;;;;;;4975312;28;20086;-67
2021/09/26 13:00:19;;;;;;;6.65;5.28;;;;;;;;;;4975264;28;20125;-68
2021/09/26 13:02:52;;;;;;;6.70;5.68;;;;;;;;;;4992265;28;20468;-68
2021/09/26 13:05:35;;;;;;;9.20;6.00;;;;;;;;;;4974792;28;20046;-66
2021/09/26 13:08:22;;;;;;;6.68;5.68;;;;;;;;;;4992177;28;20093;-67
2021/09/26 13:11:03;;;;;;;7.85;5.72;;;;;;;;;;4978899;28;20484;-66
2021/09/26 13:13:33;;;;;;;6.75;6.15;;;;;;;;;;4991760;28;20051;-66
2021/09/26 13:16:25;;;;;;;7.63;5.88;;;;;;;;;;4992322;28;20460;-66
2021/09/26 13:18:52;;;;;;;6.88;6.07;;;;;;;;;;4992157;28;20050;-66
2021/09/26 13:21:22;;;;;;;5.93;5.43;;;;;;;;;;4974845;28;20120;-66
2021/09/26 13:24:00;;;;;;;8.10;6.50;;;;;;;;;;4992128;28;20050;-68
2021/09/26 13:26:36;;;;;;;7.20;5.65;;;;;;;;;;4992412;28;20054;-67
2021/09/26 13:29:12;;;;;;;6.82;6.10;;;;;;;;;;4991397;28;20593;-68
2021/09/26 13:31:55;;;;;;;8.95;6.15;;;;;;;;;;4958877;28;20091;-68
2021/09/26 13:34:30;;;;;;;6.93;5.65;;;;;;;;;;4974557;28;20054;-67
2021/09/26 13:37:10;;;;;;;6.38;5.72;;;;;;;;;;4974672;28;20058;-67
2021/09/26 13:39:47;;;;;;;9.55;6.60;;;;;;;;;;4975313;28;20054;-66
2021/09/26 13:42:20;;;;;;;7.78;5.63;;;;;;;;;;4974792;28;20058;-67
2021/09/26 13:44:49;;;;;;;8.05;5.65;;;;;;;;;;4991432;28;20047;-68
2021/09/26 13:47:18;;;;;;;8.27;5.95;;;;;;;;;;4991690;28;20490;-67
2021/09/26 13:49:46;;;;;;;8.93;5.93;;;;;;;;;;4991516;28;20116;-67
2021/09/26 13:52:14;;;;;;;9.45;6.22;;;;;;;;;;4991506;28;20050;-67
2021/09/26 13:54:41;;;;;;;6.22;5.63;;;;;;;;;;4991523;28;20049;-66
2021/09/26 13:57:07;;;;;;;6.20;5.60;;;;;;;;;;4991298;28;20062;-67
2021/09/26 13:59:34;;;;;;;7.53;6.00;;;;;;;;;;4991533;28;20456;-67
2021/09/26 14:02:04;;;;;;;6.72;5.70;;;;;;;;;;4990985;28;20051;-66
2021/09/26 14:04:30;;;;;;;6.28;5.57;;;;;;;;;;4973092;28;20441;-67
2021/09/26 14:06:57;;;;;;;5.90;5.30;;;;;;;;;;4990776;28;20058;-69
2021/09/26 14:09:24;;;;;;;5.72;5.20;;;;;;;;;;4991139;28;20485;-66
2021/09/26 14:11:51;;;;;;;7.38;5.68;;;;;;;;;;4991049;28;20052;-68
2021/09/26 14:14:20;;;;;;;8.80;5.72;;;;;;;;;;4989918;28;20042;-67
2021/09/26 14:16:47;;;;;;;9.18;4.90;;;;;;;;;;4971970;28;20120;-67
2021/09/26 14:19:13;;;;;;;6.20;5.47;;;;;;;;;;4989745;28;20114;-67
2021/09/26 14:21:40;;;;;;;4.78;4.38;;;;;;;;;;4989744;28;20054;-67
2021/09/26 14:24:07;;;;;;;6.90;5.40;;;;;;;;;;4989516;28;21421;-67
2021/09/26 14:26:34;;;;;;;6.57;4.90;;;;;;;;;;4989875;28;20097;-66
2021/09/26 14:29:00;;;;;;;5.70;5.07;;;;;;;;;;4990852;28;20108;-66
2021/09/26 14:31:28;;;;;;;5.97;5.00;;;;;;;;;;4990747;28;20058;-67
2021/09/26 14:33:54;;;;;;;6.43;5.40;;;;;;;;;;4990782;28;20571;-67
2021/09/26 14:36:23;;;;;;;5.60;5.10;;;;;;;;;;4989856;28;20525;-67
2021/09/26 14:38:49;;;;;;;5.78;5.10;;;;;;;;;;4990617;28;20113;-67
2021/09/26 14:41:19;;;;;;;6.47;5.28;;;;;;;;;;4989513;28;20108;-68
2021/09/26 14:43:46;;;;;;;5.25;4.80;;;;;;;;;;4990510;28;20058;-67
2021/09/26 14:46:15;;;;;;;5.40;4.90;;;;;;;;;;4990770;28;20100;-67
2021/09/26 14:48:44;;;;;;;5.15;4.65;;;;;;;;;;4990451;28;20108;-67
2021/09/26 14:51:12;;;;;;;4.85;4.35;;;;;;;;;;4990710;28;20108;-67
2021/09/26 14:53:38;;;;;;;4.65;4.25;;;;;;;;;;4971091;28;20106;-66
2021/09/26 14:56:05;;;;;;;4.78;3.78;;;;;;;;;;4971376;28;20101;-67
2021/09/26 14:58:32;;;;;;;6.88;5.72;;;;;;;;;;4971368;28;20445;-67